Hlavní strana
METAR-TAF:

METAR-TAF

Letiště :

Stockholm-Arlanda, Švédsko

zeměpisná šířka: 59-39N, zeměpisná délka: 017-57E, výška: 38 m

Aktuální stav počasí

Zpráva byla vytvořena před 13 minutami, v 01:50 UTC
Západní vítr 10 kt
Teplota 4°C
Vlhkost vzduchu 87%
Tlak 1011 hPa
Viditelnost 10 km a více
Oblačno až skoro zataženo ve výšce 2400 ft

METAR: ESSA 190150Z 26010KT 9999 BKN024 04/02 Q1011 R01L/19//95 R08/19//95 R01R/19//95 NOSIG

Čas: 03:03 (02:03 UTC)

Předpověď počasí

Zpráva byla vytvořena před 2 hodinami a 33 minutami, v 23:30 UTC
Předpověď platná od 19 v 00 UTC do 19 v 24 UTC
Západojihozápadní vítr 11 kt
Viditelnost 10 km a více
Oblačno až skoro zataženo ve výšce 1500 ft
Pravděpodobnost 40%
od 19 v 00 UTC do 19 v 02 UTC
Oblačno až skoro zataženo ve výšce 1300 ft

TAF: ESSA 182330Z 1900/1924 24011KT 9999 BKN015 PROB40 1900/1902 BKN013

Stav a předpovědi počasí z více než 4 000 letišť (zprávy METAR a TAF).

Červené a žluté tečky na mapě představují dostupné meteorologické stanice.

Když kurzor umístíte na tečku, zobrazí se název stanice.

Pak kliknutím zobrazíte stav a předpověď počasí.

Chcete-li změnit mapu, kliknutím na zelené tlačítko se znaménkem +mapu přiblížíte, kliknutím na zelené tlačítko se znaménkem – mapu oddálíte a kliknutím na zelené šipky přejdete na sousední mapy.


METAR-TAF: